EHEH/EIN METAR and TAF weather

Enter ICAO airport designator
Station Type Date Time Source
EHEH METAR 2018/10/16 20:25 UTC NOAA

EHEH 162025Z AUTO 14004KT 120V210 9999 OVC280 16/10 Q1018 BLU 13003KT CAVOK


Station Type Date Time Source
EHEH Decoded METAR 2018/10/16 20:25 UTC NOAA

Eindhoven, Netherlands (EHEH) 51-27N 005-25E 28M
Oct 16, 2018 - 04:25 PM EDT / 2018.10.16 2025 UTC
Wind: from the SE (140 degrees) at 5 MPH (4 KT) (direction variable):0
Visibility: greater than 7 mile(s):0
Sky conditions: overcast
Temperature: 60 F (16 C)
Dew Point: 50 F (10 C)
Relative Humidity: 67%
Pressure (altimeter): 30.06 in. Hg (1018 hPa)
ob: EHEH 162025Z AUTO 14004KT 120V210 9999 OVC280 16/10 Q1018 BLU 13003KT CAVOK
cycle: 20

Station Type Date Time Source
EHEH TAF 2018/10/16 18:59 UTC NOAA

TAF EHEH 161742Z 1618/1724 VRB02KT CAVOK
BECMG 1700/1703 22005KT 5000
TEMPO 1703/1707 3000 BR
BECMG 1707/1710 31005KT CAVOK
BECMG 1711/1714 33006KT


Example: see airport list